sensor_id;sensor_type;location;lat;lon;timestamp;pressure;altitude;pressure_sealevel;temperature;humidity
28648;BME280;17137;51.494;-0.262;2022-12-07T00:00:17;50687.00;;;-145.72;80.45
28648;BME280;17137;51.494;-0.262;2022-12-07T00:00:48;50680.22;;;-145.72;80.53
28648;BME280;17137;51.494;-0.262;2022-12-07T00:01:20;50675.41;;;-145.72;80.24
28648;BME280;17137;51.494;-0.262;2022-12-07T00:01:50;50675.41;;;-145.72;80.02
28648;BME280;17137;51.494;-0.262;2022-12-07T00:02:20;50667.77;;;-145.72;79.83
28648;BME280;17137;51.494;-0.262;2022-12-07T00:02:51;50672.58;;;-145.72;80.10
28648;BME280;17137;51.494;-0.262;2022-12-07T00:03:21;50675.91;;;-145.72;80.71
28648;BME280;17137;51.494;-0.262;2022-12-07T00:03:53;50675.04;;;-145.72;80.71
28648;BME280;17137;51.494;-0.262;2022-12-07T00:04:24;50686.75;;;-145.72;80.66
28648;BME280;17137;51.494;-0.262;2022-12-07T00:04:54;50693.54;;;-145.72;81.26
28648;BME280;17137;51.494;-0.262;2022-12-07T00:05:24;50689.96;;;-145.72;82.01
28648;BME280;17137;51.494;-0.262;2022-12-07T00:05:57;50689.84;;;-145.72;81.73
28648;BME280;17137;51.494;-0.262;2022-12-07T00:06:28;50670.48;;;-145.72;81.15
28648;BME280;17137;51.494;-0.262;2022-12-07T00:06:58;50673.81;;;-145.72;80.82
28648;BME280;17137;51.494;-0.262;2022-12-07T00:07:29;50677.63;;;-145.72;80.67
28648;BME280;17137;51.494;-0.262;2022-12-07T00:07:59;50674.30;;;-145.72;80.62
28648;BME280;17137;51.494;-0.262;2022-12-07T00:08:30;50677.76;;;-145.72;80.50
28648;BME280;17137;51.494;-0.262;2022-12-07T00:09:01;50682.81;;;-145.72;80.62
28648;BME280;17137;51.494;-0.262;2022-12-07T00:09:31;50678.00;;;-145.72;80.63
28648;BME280;17137;51.494;-0.262;2022-12-07T00:10:01;50688.85;;;-145.72;80.86
28648;BME280;17137;51.494;-0.262;2022-12-07T00:10:33;50680.96;;;-145.72;80.75
28648;BME280;17137;51.494;-0.262;2022-12-07T00:11:05;50681.45;;;-145.72;80.56
28648;BME280;17137;51.494;-0.262;2022-12-07T00:11:36;50679.11;;;-145.72;80.17
28648;BME280;17137;51.494;-0.262;2022-12-07T00:12:06;50669.87;;;-145.72;79.91
28648;BME280;17137;51.494;-0.262;2022-12-07T00:12:37;50663.21;;;-145.72;79.95
28648;BME280;17137;51.494;-0.262;2022-12-07T00:13:07;50687.86;;;-145.72;79.97
28648;BME280;17137;51.494;-0.262;2022-12-07T00:13:38;50677.14;;;-145.72;80.02
28648;BME280;17137;51.494;-0.262;2022-12-07T00:14:12;50668.26;;;-145.72;79.91
28648;BME280;17137;51.494;-0.262;2022-12-07T00:14:42;50672.58;;;-145.72;79.74
28648;BME280;17137;51.494;-0.262;2022-12-07T00:15:13;50669.50;;;-145.72;79.69
28648;BME280;17137;51.494;-0.262;2022-12-07T00:15:44;50659.39;;;-145.72;79.57
28648;BME280;17137;51.494;-0.262;2022-12-07T00:16:16;50666.29;;;-145.72;79.40
28648;BME280;17137;51.494;-0.262;2022-12-07T00:16:50;50669.62;;;-145.72;79.17
28648;BME280;17137;51.494;-0.262;2022-12-07T00:17:20;50681.21;;;-145.72;79.31
28648;BME280;17137;51.494;-0.262;2022-12-07T00:17:50;50683.80;;;-145.72;79.36
28648;BME280;17137;51.494;-0.262;2022-12-07T00:18:21;50680.34;;;-145.72;79.58
28648;BME280;17137;51.494;-0.262;2022-12-07T00:18:51;50692.18;;;-145.72;80.42
28648;BME280;17137;51.494;-0.262;2022-12-07T00:19:22;50681.33;;;-145.72;80.26
28648;BME280;17137;51.494;-0.262;2022-12-07T00:19:52;50688.36;;;-145.72;80.39
28648;BME280;17137;51.494;-0.262;2022-12-07T00:20:22;50685.03;;;-145.72;80.42
28648;BME280;17137;51.494;-0.262;2022-12-07T00:20:52;50679.36;;;-145.72;80.29
28648;BME280;17137;51.494;-0.262;2022-12-07T00:21:25;50667.03;;;-145.72;79.98
28648;BME280;17137;51.494;-0.262;2022-12-07T00:21:56;50687.37;;;-145.72;79.50
28648;BME280;17137;51.494;-0.262;2022-12-07T00:22:26;50671.22;;;-145.72;79.12
28648;BME280;17137;51.494;-0.262;2022-12-07T00:22:57;50664.93;;;-145.72;79.01
28648;BME280;17137;51.494;-0.262;2022-12-07T00:23:27;50676.65;;;-145.72;78.83
28648;BME280;17137;51.494;-0.262;2022-12-07T00:23:58;50679.23;;;-145.72;79.03
28648;BME280;17137;51.494;-0.262;2022-12-07T00:24:29;50686.51;;;-145.72;79.80
28648;BME280;17137;51.494;-0.262;2022-12-07T00:24:59;50698.84;;;-145.72;80.31
28648;BME280;17137;51.494;-0.262;2022-12-07T00:25:30;50672.08;;;-145.72;79.87
28648;BME280;17137;51.494;-0.262;2022-12-07T00:26:04;50681.08;;;-145.72;79.75
28648;BME280;17137;51.494;-0.262;2022-12-07T00:26:36;50688.48;;;-145.72;80.56
28648;BME280;17137;51.494;-0.262;2022-12-07T00:27:07;50698.84;;;-145.72;81.63
28648;BME280;17137;51.494;-0.262;2022-12-07T00:27:37;50692.67;;;-145.72;81.37
28648;BME280;17137;51.494;-0.262;2022-12-07T00:28:07;50680.22;;;-145.72;81.00
28648;BME280;17137;51.494;-0.262;2022-12-07T00:28:38;50684.29;;;-145.72;80.69
28648;BME280;17137;51.494;-0.262;2022-12-07T00:29:13;50684.91;;;-145.72;80.88
28648;BME280;17137;51.494;-0.262;2022-12-07T00:29:45;50688.48;;;-145.72;80.54
28648;BME280;17137;51.494;-0.262;2022-12-07T00:30:15;50697.60;;;-145.72;80.68
28648;BME280;17137;51.494;-0.262;2022-12-07T00:30:46;50685.28;;;-145.72;80.58
28648;BME280;17137;51.494;-0.262;2022-12-07T00:31:18;50691.93;;;-145.72;80.91
28648;BME280;17137;51.494;-0.262;2022-12-07T00:31:49;50691.19;;;-145.72;81.46
28648;BME280;17137;51.494;-0.262;2022-12-07T00:32:19;50692.43;;;-145.72;81.60
28648;BME280;17137;51.494;-0.262;2022-12-07T00:32:49;50697.23;;;-145.72;81.50
28648;BME280;17137;51.494;-0.262;2022-12-07T00:33:19;50686.88;;;-145.72;81.70
28648;BME280;17137;51.494;-0.262;2022-12-07T00:33:50;50696.12;;;-145.72;81.60
28648;BME280;17137;51.494;-0.262;2022-12-07T00:34:21;50694.15;;;-145.72;81.62
28648;BME280;17137;51.494;-0.262;2022-12-07T00:34:51;50700.32;;;-145.72;82.23
28648;BME280;17137;51.494;-0.262;2022-12-07T00:35:21;50706.60;;;-145.72;83.04
28648;BME280;17137;51.494;-0.262;2022-12-07T00:35:55;50703.77;;;-145.72;82.68
28648;BME280;17137;51.494;-0.262;2022-12-07T00:36:26;50704.38;;;-145.72;82.63
28648;BME280;17137;51.494;-0.262;2022-12-07T00:36:57;50704.38;;;-145.72;83.08
28648;BME280;17137;51.494;-0.262;2022-12-07T00:37:27;50712.40;;;-145.72;83.70
28648;BME280;17137;51.494;-0.262;2022-12-07T00:37:57;50716.71;;;-145.72;83.70
28648;BME280;17137;51.494;-0.262;2022-12-07T00:38:29;50726.94;;;-145.72;85.16
28648;BME280;17137;51.494;-0.262;2022-12-07T00:39:00;50735.57;;;-145.72;85.83
28648;BME280;17137;51.494;-0.262;2022-12-07T00:39:31;50725.96;;;-145.72;86.30
28648;BME280;17137;51.494;-0.262;2022-12-07T00:40:01;50723.74;;;-145.72;85.41
28648;BME280;17137;51.494;-0.262;2022-12-07T00:40:31;50723.25;;;-145.72;84.74
28648;BME280;17137;51.494;-0.262;2022-12-07T00:41:03;50711.66;;;-145.72;84.59
28648;BME280;17137;51.494;-0.262;2022-12-07T00:41:34;50709.68;;;-145.72;84.23
28648;BME280;17137;51.494;-0.262;2022-12-07T00:42:04;50722.01;;;-145.72;84.74
28648;BME280;17137;51.494;-0.262;2022-12-07T00:42:35;50720.78;;;-145.72;84.91
28648;BME280;17137;51.494;-0.262;2022-12-07T00:43:05;50717.58;;;-145.72;84.92
28648;BME280;17137;51.494;-0.262;2022-12-07T00:43:35;50720.78;;;-145.72;84.86
28648;BME280;17137;51.494;-0.262;2022-12-07T00:44:06;50731.01;;;-145.72;85.42
28648;BME280;17137;51.494;-0.262;2022-12-07T00:44:36;50729.16;;;-145.72;85.51
28648;BME280;17137;51.494;-0.262;2022-12-07T00:45:07;50714.99;;;-145.72;85.09
28648;BME280;17137;51.494;-0.262;2022-12-07T00:45:38;50713.51;;;-145.72;84.46
28648;BME280;17137;51.494;-0.262;2022-12-07T00:46:09;50704.14;;;-145.72;84.13
28648;BME280;17137;51.494;-0.262;2022-12-07T00:46:39;50712.64;;;-145.72;84.63
28648;BME280;17137;51.494;-0.262;2022-12-07T00:47:09;50732.62;;;-145.72;85.62
28648;BME280;17137;51.494;-0.262;2022-12-07T00:47:40;50726.20;;;-145.72;86.15
28648;BME280;17137;51.494;-0.262;2022-12-07T00:48:10;50730.77;;;-145.72;86.88
28648;BME280;17137;51.494;-0.262;2022-12-07T00:48:41;50728.79;;;-145.72;87.10
28648;BME280;17137;51.494;-0.262;2022-12-07T00:49:11;50741.86;;;-145.72;87.35
28648;BME280;17137;51.494;-0.262;2022-12-07T00:49:41;50721.27;;;-145.72;86.88
28648;BME280;17137;51.494;-0.262;2022-12-07T00:50:17;50730.64;;;-145.72;87.01
28648;BME280;17137;51.494;-0.262;2022-12-07T00:50:47;50732.37;;;-145.72;87.41
28648;BME280;17137;51.494;-0.262;2022-12-07T00:51:20;50730.77;;;-145.72;87.68
28648;BME280;17137;51.494;-0.262;2022-12-07T00:51:50;50742.97;;;-145.72;87.63
28648;BME280;17137;51.494;-0.262;2022-12-07T00:52:21;50743.22;;;-145.72;88.03
28648;BME280;17137;51.494;-0.262;2022-12-07T00:52:51;50738.29;;;-145.72;87.59
28648;BME280;17137;51.494;-0.262;2022-12-07T00:53:21;50734.09;;;-145.72;87.69
28648;BME280;17137;51.494;-0.262;2022-12-07T00:53:52;50738.16;;;-145.72;88.25
28648;BME280;17137;51.494;-0.262;2022-12-07T00:54:22;50745.44;;;-145.72;87.95
28648;BME280;17137;51.494;-0.262;2022-12-07T00:54:53;50722.63;;;-145.72;87.66
28648;BME280;17137;51.494;-0.262;2022-12-07T00:55:23;50736.19;;;-145.72;88.10
28648;BME280;17137;51.494;-0.262;2022-12-07T00:55:53;50741.25;;;-145.72;88.03
28648;BME280;17137;51.494;-0.262;2022-12-07T00:56:25;50747.66;;;-145.72;87.98
28648;BME280;17137;51.494;-0.262;2022-12-07T00:56:56;50734.09;;;-145.72;87.89
28648;BME280;17137;51.494;-0.262;2022-12-07T00:57:27;50730.77;;;-145.72;87.89
28648;BME280;17137;51.494;-0.262;2022-12-07T00:57:58;50753.94;;;-145.72;88.57
28648;BME280;17137;51.494;-0.262;2022-12-07T00:58:29;50752.71;;;-145.72;89.10
28648;BME280;17137;51.494;-0.262;2022-12-07T00:59:01;50745.19;;;-145.72;89.29
28648;BME280;17137;51.494;-0.262;2022-12-07T00:59:31;50746.55;;;-145.72;88.90
28648;BME280;17137;51.494;-0.262;2022-12-07T01:00:02;50750.24;;;-145.72;88.99
28648;BME280;17137;51.494;-0.262;2022-12-07T01:00:33;50735.57;;;-145.72;89.07
28648;BME280;17137;51.494;-0.262;2022-12-07T01:01:06;50739.77;;;-145.72;88.80
28648;BME280;17137;51.494;-0.262;2022-12-07T01:01:38;50742.23;;;-145.72;88.59
28648;BME280;17137;51.494;-0.262;2022-12-07T01:02:08;50746.79;;;-145.72;88.51
28648;BME280;17137;51.494;-0.262;2022-12-07T01:02:39;50732.86;;;-145.72;88.55
28648;BME280;17137;51.494;-0.262;2022-12-07T01:03:12;50726.82;;;-145.72;88.55
28648;BME280;17137;51.494;-0.262;2022-12-07T01:03:42;50737.92;;;-145.72;88.51
28648;BME280;17137;51.494;-0.262;2022-12-07T01:04:12;50733.85;;;-145.72;88.41
28648;BME280;17137;51.494;-0.262;2022-12-07T01:04:43;50748.27;;;-145.72;88.50
28648;BME280;17137;51.494;-0.262;2022-12-07T01:05:13;50745.19;;;-145.72;88.45
28648;BME280;17137;51.494;-0.262;2022-12-07T01:05:50;50749.63;;;-145.72;89.13
28648;BME280;17137;51.494;-0.262;2022-12-07T01:06:25;50749.88;;;-145.72;89.87
28648;BME280;17137;51.494;-0.262;2022-12-07T01:06:55;50755.05;;;-145.72;89.81
28648;BME280;17137;51.494;-0.262;2022-12-07T01:07:26;50753.82;;;-145.72;89.56
28648;BME280;17137;51.494;-0.262;2022-12-07T01:07:56;50760.23;;;-145.72;89.80
28648;BME280;17137;51.494;-0.262;2022-12-07T01:08:27;50749.01;;;-145.72;89.66
28648;BME280;17137;51.494;-0.262;2022-12-07T01:08:57;50738.41;;;-145.72;89.55
28648;BME280;17137;51.494;-0.262;2022-12-07T01:09:28;50752.96;;;-145.72;89.37
28648;BME280;17137;51.494;-0.262;2022-12-07T01:09:58;50737.42;;;-145.72;88.95
28648;BME280;17137;51.494;-0.262;2022-12-07T01:10:29;50745.81;;;-145.72;88.59
28648;BME280;17137;51.494;-0.262;2022-12-07T01:11:01;50737.30;;;-145.72;88.74
28648;BME280;17137;51.494;-0.262;2022-12-07T01:11:32;50739.27;;;-145.72;88.74
28648;BME280;17137;51.494;-0.262;2022-12-07T01:12:02;50754.68;;;-145.72;88.75
28648;BME280;17137;51.494;-0.262;2022-12-07T01:12:33;50733.73;;;-145.72;88.71
28648;BME280;17137;51.494;-0.262;2022-12-07T01:13:03;50743.22;;;-145.72;88.97
28648;BME280;17137;51.494;-0.262;2022-12-07T01:13:34;50729.29;;;-145.72;88.89
28648;BME280;17137;51.494;-0.262;2022-12-07T01:14:05;50735.20;;;-145.72;88.78
28648;BME280;17137;51.494;-0.262;2022-12-07T01:14:35;50737.18;;;-145.72;88.54
28648;BME280;17137;51.494;-0.262;2022-12-07T01:15:07;50729.04;;;-145.72;88.25
28648;BME280;17137;51.494;-0.262;2022-12-07T01:15:39;50736.44;;;-145.72;88.51
28648;BME280;17137;51.494;-0.262;2022-12-07T01:16:12;50733.73;;;-145.72;88.57
28648;BME280;17137;51.494;-0.262;2022-12-07T01:16:42;50734.71;;;-145.72;88.94
28648;BME280;17137;51.494;-0.262;2022-12-07T01:17:13;50753.08;;;-145.72;89.32
28648;BME280;17137;51.494;-0.262;2022-12-07T01:17:43;50735.33;;;-145.72;89.34
28648;BME280;17137;51.494;-0.262;2022-12-07T01:18:13;50747.16;;;-145.72;89.70
28648;BME280;17137;51.494;-0.262;2022-12-07T01:18:47;50748.40;;;-145.72;89.81
28648;BME280;17137;51.494;-0.262;2022-12-07T01:19:18;50741.49;;;-145.72;89.30
28648;BME280;17137;51.494;-0.262;2022-12-07T01:19:48;50744.45;;;-145.72;89.05
28648;BME280;17137;51.494;-0.262;2022-12-07T01:20:18;50742.85;;;-145.72;88.79
28648;BME280;17137;51.494;-0.262;2022-12-07T01:20:57;50749.01;;;-145.72;89.04
28648;BME280;17137;51.494;-0.262;2022-12-07T01:21:30;50760.72;;;-145.72;89.70
28648;BME280;17137;51.494;-0.262;2022-12-07T01:22:00;50749.51;;;-145.72;89.45
28648;BME280;17137;51.494;-0.262;2022-12-07T01:22:31;50745.56;;;-145.72;89.29
28648;BME280;17137;51.494;-0.262;2022-12-07T01:23:01;50748.64;;;-145.72;89.67
28648;BME280;17137;51.494;-0.262;2022-12-07T01:23:32;50735.20;;;-145.72;89.83
28648;BME280;17137;51.494;-0.262;2022-12-07T01:24:05;50737.30;;;-145.72;89.60
28648;BME280;17137;51.494;-0.262;2022-12-07T01:24:35;50740.01;;;-145.72;89.01
28648;BME280;17137;51.494;-0.262;2022-12-07T01:25:07;50748.40;;;-145.72;89.33
28648;BME280;17137;51.494;-0.262;2022-12-07T01:25:38;50748.52;;;-145.72;89.12
28648;BME280;17137;51.494;-0.262;2022-12-07T01:26:11;50730.64;;;-145.72;88.76
28648;BME280;17137;51.494;-0.262;2022-12-07T01:26:42;50736.81;;;-145.72;88.63
28648;BME280;17137;51.494;-0.262;2022-12-07T01:27:12;50741.98;;;-145.72;88.57
28648;BME280;17137;51.494;-0.262;2022-12-07T01:27:43;50753.45;;;-145.72;88.70
28648;BME280;17137;51.494;-0.262;2022-12-07T01:28:13;50747.78;;;-145.72;89.43
28648;BME280;17137;51.494;-0.262;2022-12-07T01:28:44;50738.04;;;-145.72;89.37
28648;BME280;17137;51.494;-0.262;2022-12-07T01:29:14;50740.63;;;-145.72;89.01
28648;BME280;17137;51.494;-0.262;2022-12-07T01:29:45;50758.50;;;-145.72;89.37
28648;BME280;17137;51.494;-0.262;2022-12-07T01:30:15;50751.35;;;-145.72;89.37
28648;BME280;17137;51.494;-0.262;2022-12-07T01:30:55;50751.35;;;-145.72;89.60
28648;BME280;17137;51.494;-0.262;2022-12-07T01:31:27;50742.11;;;-145.72;89.65
28648;BME280;17137;51.494;-0.262;2022-12-07T01:31:57;50747.78;;;-145.72;89.39
28648;BME280;17137;51.494;-0.262;2022-12-07T01:32:29;50749.75;;;-145.72;89.19
28648;BME280;17137;51.494;-0.262;2022-12-07T01:32:59;50733.97;;;-145.72;88.94
28648;BME280;17137;51.494;-0.262;2022-12-07T01:33:31;50734.09;;;-145.72;88.70
28648;BME280;17137;51.494;-0.262;2022-12-07T01:34:02;50741.12;;;-145.72;88.82
28648;BME280;17137;51.494;-0.262;2022-12-07T01:35:01;50727.68;;;-145.72;88.16
28648;BME280;17137;51.494;-0.262;2022-12-07T01:35:33;50725.71;;;-145.72;87.99
28648;BME280;17137;51.494;-0.262;2022-12-07T01:36:05;50733.11;;;-145.72;88.21
28648;BME280;17137;51.494;-0.262;2022-12-07T01:36:36;50737.18;;;-145.72;88.32
28648;BME280;17137;51.494;-0.262;2022-12-07T01:37:06;50744.70;;;-145.72;88.67
28648;BME280;17137;51.494;-0.262;2022-12-07T01:37:37;50735.57;;;-145.72;88.32
28648;BME280;17137;51.494;-0.262;2022-12-07T01:38:08;50722.75;;;-145.72;88.03
28648;BME280;17137;51.494;-0.262;2022-12-07T01:38:39;50729.78;;;-145.72;87.96
28648;BME280;17137;51.494;-0.262;2022-12-07T01:39:09;50732.12;;;-145.72;87.91
28648;BME280;17137;51.494;-0.262;2022-12-07T01:39:40;50732.86;;;-145.72;88.34
28648;BME280;17137;51.494;-0.262;2022-12-07T01:40:11;50738.66;;;-145.72;88.38
28648;BME280;17137;51.494;-0.262;2022-12-07T01:40:41;50738.41;;;-145.72;88.00
28648;BME280;17137;51.494;-0.262;2022-12-07T01:41:12;50734.22;;;-145.72;88.23
28648;BME280;17137;51.494;-0.262;2022-12-07T01:41:42;50745.31;;;-145.72;88.49
28648;BME280;17137;51.494;-0.262;2022-12-07T01:42:13;50756.04;;;-145.72;89.51
28648;BME280;17137;51.494;-0.262;2022-12-07T01:42:43;50755.30;;;-145.72;89.24
28648;BME280;17137;51.494;-0.262;2022-12-07T01:43:16;50733.48;;;-145.72;88.99
28648;BME280;17137;51.494;-0.262;2022-12-07T01:44:22;50740.38;;;-145.72;89.35
28648;BME280;17137;51.494;-0.262;2022-12-07T01:45:58;50737.18;;;-145.72;88.73
28648;BME280;17137;51.494;-0.262;2022-12-07T01:46:29;50743.09;;;-145.72;88.62
28648;BME280;17137;51.494;-0.262;2022-12-07T01:47:01;50742.60;;;-145.72;88.60
28648;BME280;17137;51.494;-0.262;2022-12-07T01:47:32;50747.41;;;-145.72;88.67
28648;BME280;17137;51.494;-0.262;2022-12-07T01:48:03;50733.23;;;-145.72;88.41
28648;BME280;17137;51.494;-0.262;2022-12-07T01:48:37;50737.55;;;-145.72;88.69
28648;BME280;17137;51.494;-0.262;2022-12-07T01:49:11;50763.19;;;-145.72;88.97
28648;BME280;17137;51.494;-0.262;2022-12-07T01:49:46;50760.48;;;-145.72;89.07
28648;BME280;17137;51.494;-0.262;2022-12-07T01:50:18;50761.09;;;-145.72;89.14
28648;BME280;17137;51.494;-0.262;2022-12-07T01:50:51;50740.88;;;-145.72;88.89
28648;BME280;17137;51.494;-0.262;2022-12-07T01:51:23;50744.20;;;-145.72;88.60
28648;BME280;17137;51.494;-0.262;2022-12-07T01:51:58;50746.55;;;-145.72;88.54
28648;BME280;17137;51.494;-0.262;2022-12-07T01:52:32;50734.22;;;-145.72;88.57
28648;BME280;17137;51.494;-0.262;2022-12-07T01:53:06;50740.63;;;-145.72;88.91
28648;BME280;17137;51.494;-0.262;2022-12-07T01:53:41;50760.48;;;-145.72;89.16
28648;BME280;17137;51.494;-0.262;2022-12-07T01:54:14;50751.23;;;-145.72;88.82
28648;BME280;17137;51.494;-0.262;2022-12-07T01:54:47;50756.66;;;-145.72;88.96
28648;BME280;17137;51.494;-0.262;2022-12-07T01:55:19;50745.56;;;-145.72;88.96
28648;BME280;17137;51.494;-0.262;2022-12-07T01:55:52;50742.48;;;-145.72;88.77
28648;BME280;17137;51.494;-0.262;2022-12-07T01:56:25;50752.09;;;-145.72;89.28
28648;BME280;17137;51.494;-0.262;2022-12-07T01:56:57;50747.53;;;-145.72;89.23
28648;BME280;17137;51.494;-0.262;2022-12-07T01:57:29;50754.93;;;-145.72;89.24
28648;BME280;17137;51.494;-0.262;2022-12-07T01:58:00;50754.31;;;-145.72;89.13
28648;BME280;17137;51.494;-0.262;2022-12-07T01:58:31;50747.90;;;-145.72;89.13
28648;BME280;17137;51.494;-0.262;2022-12-07T01:59:01;50756.66;;;-145.72;89.45
28648;BME280;17137;51.494;-0.262;2022-12-07T01:59:32;50744.45;;;-145.72;89.63
28648;BME280;17137;51.494;-0.262;2022-12-07T02:00:05;50766.76;;;-145.72;89.78
28648;BME280;17137;51.494;-0.262;2022-12-07T02:00:36;50755.42;;;-145.72;89.36
28648;BME280;17137;51.494;-0.262;2022-12-07T02:01:06;50755.05;;;-145.72;89.16
28648;BME280;17137;51.494;-0.262;2022-12-07T02:01:37;50747.90;;;-145.72;88.77
28648;BME280;17137;51.494;-0.262;2022-12-07T02:02:12;50753.57;;;-145.72;88.43
28648;BME280;17137;51.494;-0.262;2022-12-07T02:02:51;50753.20;;;-145.72;88.17
28648;BME280;17137;51.494;-0.262;2022-12-07T02:03:27;50757.15;;;-145.72;88.41
28648;BME280;17137;51.494;-0.262;2022-12-07T02:04:00;50752.22;;;-145.72;88.48
28648;BME280;17137;51.494;-0.262;2022-12-07T02:04:30;50745.19;;;-145.72;88.30
28648;BME280;17137;51.494;-0.262;2022-12-07T02:05:03;50738.41;;;-145.72;87.86
28648;BME280;17137;51.494;-0.262;2022-12-07T02:05:35;50743.96;;;-145.72;87.56
28648;BME280;17137;51.494;-0.262;2022-12-07T02:06:08;50735.08;;;-145.72;87.44
28648;BME280;17137;51.494;-0.262;2022-12-07T02:06:41;50736.07;;;-145.72;86.98
28648;BME280;17137;51.494;-0.262;2022-12-07T02:07:13;50743.59;;;-145.72;86.95
28648;BME280;17137;51.494;-0.262;2022-12-07T02:07:45;50734.09;;;-145.72;86.88
28648;BME280;17137;51.494;-0.262;2022-12-07T02:08:17;50737.92;;;-145.72;87.09
28648;BME280;17137;51.494;-0.262;2022-12-07T02:08:49;50741.37;;;-145.72;87.19
28648;BME280;17137;51.494;-0.262;2022-12-07T02:09:19;50729.78;;;-145.72;87.08
28648;BME280;17137;51.494;-0.262;2022-12-07T02:09:49;50744.33;;;-145.72;87.02
28648;BME280;17137;51.494;-0.262;2022-12-07T02:10:22;50734.59;;;-145.72;87.54
28648;BME280;17137;51.494;-0.262;2022-12-07T02:10:52;50752.09;;;-145.72;87.62
28648;BME280;17137;51.494;-0.262;2022-12-07T02:11:23;50733.48;;;-145.72;87.89
28648;BME280;17137;51.494;-0.262;2022-12-07T02:11:54;50740.51;;;-145.72;88.20
28648;BME280;17137;51.494;-0.262;2022-12-07T02:12:25;50758.50;;;-145.72;89.24
28648;BME280;17137;51.494;-0.262;2022-12-07T02:12:57;50757.64;;;-145.72;89.56
28648;BME280;17137;51.494;-0.262;2022-12-07T02:13:31;50755.05;;;-145.72;89.02
28648;BME280;17137;51.494;-0.262;2022-12-07T02:14:02;50751.48;;;-145.72;89.10
28648;BME280;17137;51.494;-0.262;2022-12-07T02:14:33;50759.86;;;-145.72;89.47
28648;BME280;17137;51.494;-0.262;2022-12-07T02:15:04;50750.49;;;-145.72;89.09
28648;BME280;17137;51.494;-0.262;2022-12-07T02:15:45;50756.16;;;-145.72;88.73
28648;BME280;17137;51.494;-0.262;2022-12-07T02:16:25;50742.23;;;-145.72;88.75
28648;BME280;17137;51.494;-0.262;2022-12-07T02:17:07;50749.14;;;-145.72;88.71
28648;BME280;17137;51.494;-0.262;2022-12-07T02:17:49;50747.29;;;-145.72;88.32
28648;BME280;17137;51.494;-0.262;2022-12-07T02:18:28;50751.85;;;-145.72;88.79
28648;BME280;17137;51.494;-0.262;2022-12-07T02:19:30;50748.40;;;-145.72;89.03
28648;BME280;17137;51.494;-0.262;2022-12-07T02:20:21;50754.44;;;-145.72;88.65
28648;BME280;17137;51.494;-0.262;2022-12-07T02:20:59;50767.26;;;-145.72;89.99
28648;BME280;17137;51.494;-0.262;2022-12-07T02:21:40;50761.09;;;-145.72;89.90
28648;BME280;17137;51.494;-0.262;2022-12-07T02:22:26;50752.46;;;-145.72;89.56
28648;BME280;17137;51.494;-0.262;2022-12-07T02:23:40;50760.60;;;-145.72;89.90
28648;BME280;17137;51.494;-0.262;2022-12-07T02:24:22;50745.31;;;-145.72;89.82
28648;BME280;17137;51.494;-0.262;2022-12-07T02:24:58;50749.38;;;-145.72;89.80
28648;BME280;17137;51.494;-0.262;2022-12-07T02:25:50;50771.82;;;-145.72;90.55
28648;BME280;17137;51.494;-0.262;2022-12-07T02:29:12;50756.04;;;-145.72;90.54
28648;BME280;17137;51.494;-0.262;2022-12-07T02:29:47;50762.33;;;-145.72;90.19
28648;BME280;17137;51.494;-0.262;2022-12-07T02:30:21;50756.29;;;-145.72;90.88
28648;BME280;17137;51.494;-0.262;2022-12-07T02:30:52;50757.64;;;-145.72;90.67
28648;BME280;17137;51.494;-0.262;2022-12-07T02:31:27;50760.60;;;-145.72;90.77
28648;BME280;17137;51.494;-0.262;2022-12-07T02:32:04;50751.48;;;-145.72;90.45
28648;BME280;17137;51.494;-0.262;2022-12-07T02:32:43;50741.86;;;-145.72;89.91
28648;BME280;17137;51.494;-0.262;2022-12-07T02:33:17;50762.45;;;-145.72;89.76
28648;BME280;17137;51.494;-0.262;2022-12-07T02:33:54;50745.19;;;-145.72;89.57
28648;BME280;17137;51.494;-0.262;2022-12-07T02:34:34;50757.52;;;-145.72;89.27
28648;BME280;17137;51.494;-0.262;2022-12-07T02:35:09;50736.81;;;-145.72;89.10
28648;BME280;17137;51.494;-0.262;2022-12-07T02:35:44;50740.26;;;-145.72;89.19
28648;BME280;17137;51.494;-0.262;2022-12-07T02:36:21;50734.59;;;-145.72;89.04
28648;BME280;17137;51.494;-0.262;2022-12-07T02:37:00;50741.62;;;-145.72;89.13
28648;BME280;17137;51.494;-0.262;2022-12-07T02:37:36;50749.01;;;-145.72;89.07
28648;BME280;17137;51.494;-0.262;2022-12-07T02:38:14;50747.04;;;-145.72;88.85
28648;BME280;17137;51.494;-0.262;2022-12-07T02:38:51;50741.62;;;-145.72;89.33
28648;BME280;17137;51.494;-0.262;2022-12-07T02:39:31;50743.96;;;-145.72;89.25
28648;BME280;17137;51.494;-0.262;2022-12-07T02:40:11;50751.35;;;-145.72;90.04
28648;BME280;17137;51.494;-0.262;2022-12-07T02:40:48;50762.57;;;-145.72;90.46
28648;BME280;17137;51.494;-0.262;2022-12-07T02:41:24;50765.90;;;-145.72;91.37
28648;BME280;17137;51.494;-0.262;2022-12-07T02:41:59;50762.82;;;-145.72;91.71
28648;BME280;17137;51.494;-0.262;2022-12-07T02:42:36;50754.07;;;-145.72;91.43
28648;BME280;17137;51.494;-0.262;2022-12-07T02:43:12;50759.37;;;-145.72;91.78
28648;BME280;17137;51.494;-0.262;2022-12-07T02:43:47;50745.68;;;-145.72;91.55
28648;BME280;17137;51.494;-0.262;2022-12-07T02:44:24;50745.93;;;-145.72;91.08
28648;BME280;17137;51.494;-0.262;2022-12-07T02:44:56;50752.71;;;-145.72;90.81
28648;BME280;17137;51.494;-0.262;2022-12-07T02:45:27;50755.30;;;-145.72;90.82
28648;BME280;17137;51.494;-0.262;2022-12-07T02:46:04;50750.49;;;-145.72;90.42
28648;BME280;17137;51.494;-0.262;2022-12-07T02:46:38;50750.12;;;-145.72;90.71
28648;BME280;17137;51.494;-0.262;2022-12-07T02:47:13;50759.74;;;-145.72;91.03
28648;BME280;17137;51.494;-0.262;2022-12-07T02:47:46;50758.75;;;-145.72;91.30
28648;BME280;17137;51.494;-0.262;2022-12-07T02:48:19;50753.33;;;-145.72;91.38
28648;BME280;17137;51.494;-0.262;2022-12-07T02:48:51;50749.75;;;-145.72;91.04
28648;BME280;17137;51.494;-0.262;2022-12-07T02:49:24;50751.85;;;-145.72;90.94
28648;BME280;17137;51.494;-0.262;2022-12-07T02:49:55;50750.12;;;-145.72;90.65
28648;BME280;17137;51.494;-0.262;2022-12-07T02:50:26;50758.63;;;-145.72;91.18